SAS943 EKCH-KORD
Flight info
| Callsign | SAS943 |
|---|---|
| Flight time | N/A |
| Altitude | 36000 |
| Route | GOLGA DCT TUXIL DCT VALDI/M080F360 DCT 63N010W 63N020W 63N030W 62N040W 60N050W/M082F380 DCT VESMI/N0473F380 DCT YDP DCT JOVIE DCT YVO Q923 HOCKE Q824 FNT WYNDE2 |
| Aircraft | A339/H-SADE1E2E3GHIJ3J5M1P2RWXY/LB2D1 |
Departure
| Time | 2026-04-22 11:37 |
|---|---|
| Airport | Copenhagen Kastrup Airport (EKCH) |
Arrival
| Time | N/A |
|---|---|
| Airport | Chicago O'Hare International Airport (KORD) |
| Time | Latitude | Longitude | Altitude | Speed | Heading |
|---|---|---|---|---|---|
| 2026-04-22 10:55 | 55.62494 | 12.64905 | 25 ft | 0 kts | 89° |
| 2026-04-22 11:25 | 55.62494 | 12.64892 | 25 ft | 2 kts | 88° |
| 2026-04-22 11:25 | 55.62494 | 12.64857 | 30 ft | 3 kts | 89° |
| 2026-04-22 11:25 | 55.62493 | 12.64821 | 30 ft | 3 kts | 95° |
| 2026-04-22 11:26 | 55.62494 | 12.64788 | 31 ft | 3 kts | 112° |
| 2026-04-22 11:26 | 55.62497 | 12.64763 | 31 ft | 3 kts | 150° |
| 2026-04-22 11:26 | 55.62501 | 12.64754 | 31 ft | 1 kts | 180° |
| 2026-04-22 11:26 | 55.62502 | 12.64754 | 31 ft | 0 kts | 180° |
| 2026-04-22 11:29 | 55.62499 | 12.64754 | 31 ft | 2 kts | 179° |
| 2026-04-22 11:29 | 55.62466 | 12.64765 | 30 ft | 8 kts | 169° |
| 2026-04-22 11:30 | 55.62396 | 12.64779 | 27 ft | 11 kts | 177° |
| 2026-04-22 11:30 | 55.62324 | 12.64787 | 29 ft | 10 kts | 175° |
| 2026-04-22 11:30 | 55.62278 | 12.64843 | 30 ft | 8 kts | 131° |
| 2026-04-22 11:30 | 55.62235 | 12.64947 | 29 ft | 13 kts | 124° |
| 2026-04-22 11:31 | 55.62177 | 12.65089 | 30 ft | 14 kts | 140° |
| 2026-04-22 11:31 | 55.62091 | 12.65043 | 27 ft | 14 kts | 213° |
| 2026-04-22 11:31 | 55.62003 | 12.64940 | 30 ft | 16 kts | 212° |
| 2026-04-22 11:31 | 55.61903 | 12.64828 | 24 ft | 18 kts | 212° |
| 2026-04-22 11:32 | 55.61806 | 12.64716 | 29 ft | 16 kts | 213° |
| 2026-04-22 11:32 | 55.61716 | 12.64613 | 27 ft | 17 kts | 213° |
| 2026-04-22 11:32 | 55.61606 | 12.64485 | 29 ft | 19 kts | 212° |
| 2026-04-22 11:32 | 55.61495 | 12.64360 | 29 ft | 19 kts | 213° |
| 2026-04-22 11:33 | 55.61381 | 12.64229 | 29 ft | 20 kts | 212° |
| 2026-04-22 11:33 | 55.61264 | 12.64094 | 28 ft | 21 kts | 214° |
| 2026-04-22 11:33 | 55.61147 | 12.63957 | 28 ft | 19 kts | 213° |
| 2026-04-22 11:33 | 55.61034 | 12.63827 | 30 ft | 19 kts | 213° |
| 2026-04-22 11:34 | 55.60930 | 12.63710 | 27 ft | 18 kts | 213° |
| 2026-04-22 11:34 | 55.60825 | 12.63589 | 27 ft | 18 kts | 213° |
| 2026-04-22 11:34 | 55.60718 | 12.63466 | 29 ft | 19 kts | 213° |
| 2026-04-22 11:34 | 55.60613 | 12.63328 | 28 ft | 18 kts | 219° |
| 2026-04-22 11:35 | 55.60509 | 12.63213 | 26 ft | 15 kts | 180° |
| 2026-04-22 11:35 | 55.60433 | 12.63328 | 26 ft | 14 kts | 130° |
| 2026-04-22 11:35 | 55.60406 | 12.63457 | 28 ft | 9 kts | 66° |
| 2026-04-22 11:35 | 55.60439 | 12.63511 | 27 ft | 0 kts | 41° |
| 2026-04-22 11:36 | 55.60444 | 12.63517 | 27 ft | 11 kts | 41° |
| 2026-04-22 11:36 | 55.60698 | 12.63904 | 30 ft | 85 kts | 41° |
| 2026-04-22 11:36 | 55.61318 | 12.64867 | 27 ft | 149 kts | 40° |
| 2026-04-22 11:36 | 55.62212 | 12.66236 | 213 ft | 179 kts | 36° |
| 2026-04-22 11:37 | 55.63171 | 12.67605 | 926 ft | 178 kts | 34° |
| 2026-04-22 11:37 | 55.64104 | 12.68968 | 1752 ft | 175 kts | 38° |
| 2026-04-22 11:37 | 55.65033 | 12.70473 | 2282 ft | 187 kts | 39° |
| 2026-04-22 11:37 | 55.66134 | 12.71834 | 2516 ft | 204 kts | 17° |
| 2026-04-22 11:38 | 55.67586 | 12.72004 | 2821 ft | 217 kts | 348° |
| 2026-04-22 11:38 | 55.69066 | 12.71221 | 3155 ft | 229 kts | 341° |
| 2026-04-22 11:38 | 55.72295 | 12.69771 | 3965 ft | 245 kts | 351° |
| 2026-04-22 11:39 | 55.73987 | 12.69222 | 4540 ft | 247 kts | 348° |
| 2026-04-22 11:39 | 55.75671 | 12.68422 | 5114 ft | 250 kts | 343° |
| 2026-04-22 11:39 | 55.77318 | 12.67349 | 5644 ft | 254 kts | 338° |
| 2026-04-22 11:39 | 55.78907 | 12.65976 | 6205 ft | 257 kts | 333° |
| 2026-04-22 11:40 | 55.80426 | 12.64296 | 6755 ft | 261 kts | 327° |
| 2026-04-22 11:40 | 55.81872 | 12.62284 | 7301 ft | 264 kts | 321° |
| 2026-04-22 11:40 | 55.83189 | 12.59999 | 7829 ft | 269 kts | 315° |
| 2026-04-22 11:40 | 55.84399 | 12.57380 | 8370 ft | 273 kts | 309° |
| 2026-04-22 11:41 | 55.85436 | 12.54530 | 8978 ft | 278 kts | 303° |
| 2026-04-22 11:41 | 55.86307 | 12.51422 | 9580 ft | 283 kts | 296° |
| 2026-04-22 11:41 | 55.87031 | 12.48127 | 10176 ft | 286 kts | 294° |
| 2026-04-22 11:41 | 55.87754 | 12.44781 | 10537 ft | 297 kts | 294° |
| 2026-04-22 11:42 | 55.88529 | 12.41262 | 10706 ft | 314 kts | 295° |
| 2026-04-22 11:42 | 55.89353 | 12.37566 | 10870 ft | 330 kts | 295° |
| 2026-04-22 11:42 | 55.90283 | 12.33757 | 11217 ft | 336 kts | 301° |
| 2026-04-22 11:42 | 55.91529 | 12.30214 | 11742 ft | 336 kts | 309° |
| 2026-04-22 11:43 | 55.92906 | 12.26828 | 12211 ft | 340 kts | 309° |
| 2026-04-22 11:43 | 55.94278 | 12.23404 | 12721 ft | 343 kts | 308° |
| 2026-04-22 11:43 | 55.95672 | 12.19877 | 13232 ft | 346 kts | 308° |
| 2026-04-22 11:43 | 55.97048 | 12.16378 | 13711 ft | 350 kts | 308° |
| 2026-04-22 11:44 | 55.98464 | 12.12780 | 14195 ft | 353 kts | 308° |
| 2026-04-22 11:44 | 55.99871 | 12.09203 | 14633 ft | 355 kts | 308° |
| 2026-04-22 11:44 | 56.01328 | 12.05614 | 15047 ft | 357 kts | 311° |
| 2026-04-22 11:44 | 56.02986 | 12.02302 | 15481 ft | 358 kts | 318° |
| 2026-04-22 11:45 | 56.04848 | 11.99287 | 15912 ft | 359 kts | 324° |
| 2026-04-22 11:45 | 56.06844 | 11.96627 | 16348 ft | 360 kts | 329° |
| 2026-04-22 11:45 | 56.08967 | 11.94305 | 16762 ft | 361 kts | 334° |
| 2026-04-22 11:45 | 56.11177 | 11.92119 | 17176 ft | 364 kts | 334° |
| 2026-04-22 11:46 | 56.13400 | 11.89875 | 17601 ft | 367 kts | 334° |
| 2026-04-22 11:46 | 56.15606 | 11.87629 | 18024 ft | 370 kts | 334° |
| 2026-04-22 11:46 | 56.17874 | 11.85315 | 18437 ft | 373 kts | 334° |
| 2026-04-22 11:46 | 56.20126 | 11.83014 | 18842 ft | 376 kts | 334° |
| 2026-04-22 11:47 | 56.22416 | 11.80674 | 19232 ft | 378 kts | 334° |
| 2026-04-22 11:47 | 56.24689 | 11.78350 | 19637 ft | 380 kts | 334° |
| 2026-04-22 11:47 | 56.26991 | 11.75994 | 20031 ft | 382 kts | 334° |
| 2026-04-22 11:47 | 56.29305 | 11.73623 | 20414 ft | 384 kts | 334° |
| 2026-04-22 11:48 | 56.31634 | 11.71215 | 20801 ft | 387 kts | 332° |
| 2026-04-22 11:48 | 56.33857 | 11.68380 | 21197 ft | 393 kts | 324° |
| 2026-04-22 11:48 | 56.35880 | 11.64976 | 21581 ft | 398 kts | 318° |
| 2026-04-22 11:48 | 56.37813 | 11.61441 | 21976 ft | 400 kts | 319° |
| 2026-04-22 11:49 | 56.39786 | 11.57884 | 22371 ft | 403 kts | 319° |
| 2026-04-22 11:49 | 56.41792 | 11.54291 | 22779 ft | 405 kts | 319° |
| 2026-04-22 11:49 | 56.43800 | 11.50697 | 23171 ft | 407 kts | 319° |
| 2026-04-22 11:49 | 56.45814 | 11.47088 | 23570 ft | 410 kts | 319° |
| 2026-04-22 11:50 | 56.47857 | 11.43422 | 23956 ft | 412 kts | 319° |
| 2026-04-22 11:50 | 56.49894 | 11.39756 | 24263 ft | 415 kts | 319° |
| 2026-04-22 11:50 | 56.51938 | 11.36073 | 24553 ft | 419 kts | 319° |
| 2026-04-22 11:50 | 56.54007 | 11.32334 | 24835 ft | 422 kts | 319° |
| 2026-04-22 11:51 | 56.56099 | 11.28547 | 25139 ft | 426 kts | 319° |
| 2026-04-22 11:51 | 56.58194 | 11.24744 | 25442 ft | 429 kts | 319° |
| 2026-04-22 11:51 | 56.60318 | 11.20883 | 25739 ft | 432 kts | 319° |
| 2026-04-22 11:51 | 56.61725 | 11.18321 | 25926 ft | 434 kts | 319° |
| 2026-04-22 11:52 | 56.63862 | 11.14424 | 26211 ft | 438 kts | 319° |
| 2026-04-22 11:52 | 56.66019 | 11.10486 | 26500 ft | 441 kts | 319° |
| 2026-04-22 11:52 | 56.68191 | 11.06512 | 26778 ft | 444 kts | 320° |
| 2026-04-22 11:52 | 56.70384 | 11.02492 | 27060 ft | 447 kts | 320° |
| 2026-04-22 11:53 | 56.72580 | 10.98461 | 27335 ft | 450 kts | 320° |
| 2026-04-22 11:53 | 56.74798 | 10.94381 | 27607 ft | 454 kts | 320° |
| 2026-04-22 11:53 | 56.77024 | 10.90278 | 27883 ft | 457 kts | 320° |
| 2026-04-22 11:53 | 56.79249 | 10.86172 | 28151 ft | 460 kts | 320° |
| 2026-04-22 11:54 | 56.81496 | 10.82017 | 28419 ft | 463 kts | 320° |
| 2026-04-22 11:54 | 56.83765 | 10.77812 | 28682 ft | 465 kts | 320° |
| 2026-04-22 11:54 | 56.86055 | 10.73562 | 28937 ft | 468 kts | 320° |
| 2026-04-22 11:54 | 56.88342 | 10.69310 | 29202 ft | 471 kts | 320° |
| 2026-04-22 11:55 | 56.90646 | 10.65018 | 29450 ft | 474 kts | 320° |
| 2026-04-22 11:55 | 56.92963 | 10.60692 | 29686 ft | 477 kts | 320° |
| 2026-04-22 11:55 | 56.95281 | 10.56357 | 29943 ft | 479 kts | 320° |
| 2026-04-22 11:55 | 56.97641 | 10.51937 | 30182 ft | 482 kts | 320° |
| 2026-04-22 11:56 | 56.99995 | 10.47517 | 30446 ft | 485 kts | 320° |
| 2026-04-22 11:56 | 57.02338 | 10.43111 | 30669 ft | 487 kts | 320° |
| 2026-04-22 11:56 | 57.04720 | 10.38621 | 30901 ft | 490 kts | 320° |
| 2026-04-22 11:56 | 57.07092 | 10.34142 | 31142 ft | 492 kts | 320° |
| 2026-04-22 11:57 | 57.09482 | 10.29622 | 31368 ft | 495 kts | 320° |
| 2026-04-22 11:57 | 57.11902 | 10.25033 | 31575 ft | 497 kts | 320° |
| 2026-04-22 11:57 | 57.14284 | 10.20510 | 31823 ft | 499 kts | 320° |
| 2026-04-22 11:57 | 57.16709 | 10.15894 | 32048 ft | 502 kts | 320° |
| 2026-04-22 11:58 | 57.19145 | 10.11248 | 32271 ft | 504 kts | 320° |
| 2026-04-22 11:58 | 57.21596 | 10.06563 | 32478 ft | 507 kts | 320° |
| 2026-04-22 11:58 | 57.24049 | 10.01867 | 32688 ft | 509 kts | 320° |
| 2026-04-22 11:58 | 57.26487 | 9.97188 | 32883 ft | 511 kts | 320° |
| 2026-04-22 11:59 | 57.28973 | 9.92410 | 33056 ft | 513 kts | 320° |
| 2026-04-22 11:59 | 57.31442 | 9.87651 | 33204 ft | 515 kts | 320° |
| 2026-04-22 11:59 | 57.33928 | 9.82852 | 33352 ft | 517 kts | 320° |
| 2026-04-22 11:59 | 57.36422 | 9.78028 | 33495 ft | 518 kts | 320° |
| 2026-04-22 12:00 | 57.38909 | 9.73204 | 33627 ft | 519 kts | 320° |
| 2026-04-22 12:00 | 57.41399 | 9.68368 | 33708 ft | 521 kts | 320° |
| 2026-04-22 12:00 | 57.43907 | 9.63484 | 33827 ft | 522 kts | 320° |
| 2026-04-22 12:00 | 57.46422 | 9.58576 | 33970 ft | 523 kts | 320° |
| 2026-04-22 12:01 | 57.48924 | 9.53682 | 34113 ft | 523 kts | 320° |
| 2026-04-22 12:01 | 57.51421 | 9.48790 | 34260 ft | 523 kts | 320° |
| 2026-04-22 12:01 | 57.53914 | 9.43893 | 34400 ft | 523 kts | 320° |
| 2026-04-22 12:01 | 57.56435 | 9.38929 | 34572 ft | 522 kts | 320° |
| 2026-04-22 12:02 | 57.58901 | 9.34062 | 34777 ft | 520 kts | 320° |
| 2026-04-22 12:02 | 57.61386 | 9.29150 | 34970 ft | 518 kts | 319° |
| 2026-04-22 12:02 | 57.63857 | 9.24257 | 35146 ft | 517 kts | 319° |
| 2026-04-22 12:02 | 57.66305 | 9.19399 | 35316 ft | 516 kts | 319° |
| 2026-04-22 12:03 | 57.68768 | 9.14500 | 35497 ft | 514 kts | 319° |
| 2026-04-22 12:03 | 57.71220 | 9.09612 | 35658 ft | 513 kts | 319° |
| 2026-04-22 12:03 | 57.73662 | 9.04737 | 35814 ft | 512 kts | 319° |
| 2026-04-22 12:03 | 57.76097 | 8.99865 | 35982 ft | 511 kts | 319° |
| 2026-04-22 12:04 | 57.78510 | 8.95027 | 36142 ft | 510 kts | 318° |
| 2026-04-22 12:04 | 57.80923 | 8.90179 | 36294 ft | 509 kts | 318° |
| 2026-04-22 12:04 | 57.85748 | 8.80456 | 36313 ft | 508 kts | 318° |
| 2026-04-22 12:05 | 57.90538 | 8.70759 | 36307 ft | 508 kts | 318° |
| 2026-04-22 12:05 | 57.95355 | 8.60965 | 36304 ft | 508 kts | 318° |
| 2026-04-22 12:06 | 58.00135 | 8.51205 | 36302 ft | 508 kts | 317° |
| 2026-04-22 12:06 | 58.04943 | 8.41347 | 36294 ft | 508 kts | 317° |
| 2026-04-22 12:07 | 58.09714 | 8.31528 | 36290 ft | 508 kts | 317° |
| 2026-04-22 12:07 | 58.14489 | 8.21657 | 36287 ft | 508 kts | 317° |
| 2026-04-22 12:08 | 58.19240 | 8.11792 | 36288 ft | 508 kts | 317° |
| 2026-04-22 12:08 | 58.23987 | 8.01887 | 36287 ft | 508 kts | 317° |
| 2026-04-22 12:09 | 58.28744 | 7.91921 | 36287 ft | 508 kts | 317° |
| 2026-04-22 12:09 | 58.33477 | 7.81962 | 36283 ft | 509 kts | 317° |
| 2026-04-22 12:10 | 58.38198 | 7.71987 | 36283 ft | 509 kts | 316° |
| 2026-04-22 12:10 | 58.42936 | 7.61932 | 36275 ft | 509 kts | 316° |
| 2026-04-22 12:11 | 58.47678 | 7.51822 | 36304 ft | 509 kts | 316° |
| 2026-04-22 12:11 | 58.52376 | 7.41770 | 36303 ft | 509 kts | 316° |
| 2026-04-22 12:12 | 58.57111 | 7.31589 | 36298 ft | 510 kts | 316° |
| 2026-04-22 12:12 | 58.61833 | 7.21383 | 36313 ft | 510 kts | 316° |
| 2026-04-22 12:13 | 58.66496 | 7.11265 | 36311 ft | 510 kts | 316° |
| 2026-04-22 12:13 | 58.71183 | 7.01054 | 36319 ft | 510 kts | 315° |
| 2026-04-22 12:14 | 58.75879 | 6.90775 | 36320 ft | 510 kts | 315° |
| 2026-04-22 12:14 | 58.80572 | 6.80458 | 36331 ft | 510 kts | 315° |
| 2026-04-22 12:15 | 58.85224 | 6.70185 | 36343 ft | 510 kts | 315° |
| 2026-04-22 12:15 | 58.89893 | 6.59829 | 36357 ft | 511 kts | 315° |
| 2026-04-22 12:16 | 58.94560 | 6.49434 | 36366 ft | 511 kts | 315° |
| 2026-04-22 12:16 | 58.99219 | 6.39005 | 36379 ft | 511 kts | 315° |
| 2026-04-22 12:17 | 59.03846 | 6.28603 | 36387 ft | 512 kts | 315° |
| 2026-04-22 12:17 | 59.08513 | 6.18062 | 36397 ft | 511 kts | 314° |
| 2026-04-22 12:18 | 59.13145 | 6.07553 | 36403 ft | 511 kts | 314° |
| 2026-04-22 12:18 | 59.17765 | 5.97026 | 36399 ft | 512 kts | 314° |
| 2026-04-22 12:19 | 59.22378 | 5.86465 | 36402 ft | 512 kts | 314° |
| 2026-04-22 12:19 | 59.26994 | 5.75851 | 36410 ft | 512 kts | 314° |
| 2026-04-22 12:20 | 59.31584 | 5.65258 | 36417 ft | 512 kts | 314° |
| 2026-04-22 12:20 | 59.36180 | 5.54620 | 36425 ft | 512 kts | 314° |
| 2026-04-22 12:21 | 59.40740 | 5.43769 | 36423 ft | 514 kts | 310° |
| 2026-04-22 12:21 | 59.44902 | 5.32330 | 36421 ft | 515 kts | 309° |
| 2026-04-22 12:22 | 59.49149 | 5.20982 | 36426 ft | 515 kts | 309° |
| 2026-04-22 12:22 | 59.53378 | 5.09585 | 36430 ft | 516 kts | 309° |
| 2026-04-22 12:23 | 59.57573 | 4.98149 | 36435 ft | 516 kts | 309° |
| 2026-04-22 12:23 | 59.61768 | 4.86640 | 36442 ft | 516 kts | 308° |
| 2026-04-22 12:24 | 59.65944 | 4.75126 | 36444 ft | 517 kts | 308° |
| 2026-04-22 12:24 | 59.70120 | 4.63553 | 36457 ft | 517 kts | 308° |
| 2026-04-22 12:25 | 59.74312 | 4.51882 | 36457 ft | 518 kts | 308° |
| 2026-04-22 12:25 | 59.78475 | 4.40231 | 36462 ft | 518 kts | 308° |
| 2026-04-22 12:26 | 59.82621 | 4.28570 | 36465 ft | 518 kts | 308° |
| 2026-04-22 12:26 | 59.86766 | 4.16855 | 36475 ft | 519 kts | 308° |
| 2026-04-22 12:27 | 59.90909 | 4.05087 | 36482 ft | 519 kts | 307° |
| 2026-04-22 12:27 | 59.95035 | 3.93306 | 36475 ft | 520 kts | 307° |